createdAt,value
2018-07-17T00:00:46.421Z,17.00
2018-07-17T00:03:15.054Z,17.10
2018-07-17T00:05:43.724Z,17.00
2018-07-17T00:08:12.354Z,17.00
2018-07-17T00:10:41.002Z,16.90
2018-07-17T00:13:09.638Z,16.90
2018-07-17T00:15:38.275Z,16.60
2018-07-17T00:18:06.902Z,16.60
2018-07-17T00:20:35.532Z,16.50
2018-07-17T00:23:04.181Z,16.60
2018-07-17T00:25:32.843Z,16.50
2018-07-17T00:28:01.454Z,16.50
2018-07-17T00:30:30.202Z,16.40
2018-07-17T00:32:58.825Z,16.40
2018-07-17T00:35:27.474Z,16.30
2018-07-17T00:37:56.127Z,16.30
2018-07-17T00:40:24.796Z,16.30
2018-07-17T00:42:53.602Z,16.20
2018-07-17T00:45:22.263Z,16.10
2018-07-17T00:47:50.907Z,16.20
2018-07-17T00:50:19.561Z,16.20
2018-07-17T00:52:48.188Z,16.10
2018-07-17T00:55:16.817Z,16.00
2018-07-17T00:57:45.563Z,15.90
2018-07-17T01:00:14.270Z,16.00
2018-07-17T01:02:48.175Z,16.00
2018-07-17T01:05:22.022Z,16.00
2018-07-17T01:07:55.849Z,15.90
2018-07-17T01:10:29.791Z,16.00
2018-07-17T01:12:57.595Z,15.90
2018-07-17T01:15:29.629Z,15.90
2018-07-17T01:17:58.226Z,15.80
2018-07-17T01:20:26.869Z,15.70
2018-07-17T01:22:55.472Z,15.70
2018-07-17T01:25:24.138Z,15.70
2018-07-17T01:27:52.751Z,15.60
2018-07-17T01:30:21.405Z,15.60
2018-07-17T01:32:50.108Z,15.60
2018-07-17T01:35:18.790Z,15.50
2018-07-17T01:37:47.420Z,15.50
2018-07-17T01:40:16.098Z,15.40
2018-07-17T01:42:44.725Z,15.40
2018-07-17T01:45:13.466Z,15.40
2018-07-17T01:47:42.110Z,15.50
2018-07-17T01:50:10.781Z,15.60
2018-07-17T01:52:39.394Z,15.60
2018-07-17T01:55:08.070Z,15.60
2018-07-17T01:57:36.686Z,15.60
2018-07-17T02:00:05.611Z,15.50
2018-07-17T02:02:34.236Z,15.50
2018-07-17T02:05:02.887Z,15.40
2018-07-17T02:07:31.958Z,15.30
2018-07-17T02:10:00.761Z,15.20
2018-07-17T02:12:29.408Z,15.10
2018-07-17T02:14:58.131Z,15.20
2018-07-17T02:17:26.778Z,15.20
2018-07-17T02:19:55.435Z,15.10
2018-07-17T02:22:24.057Z,15.10
2018-07-17T02:24:52.623Z,15.30
2018-07-17T02:27:21.299Z,15.20
2018-07-17T02:29:50.121Z,15.20
2018-07-17T02:32:24.607Z,15.20
2018-07-17T02:34:53.647Z,15.10
2018-07-17T02:37:22.339Z,15.10
2018-07-17T02:39:51.018Z,15.10
2018-07-17T02:42:19.711Z,15.00
2018-07-17T02:44:48.311Z,14.90
2018-07-17T02:47:16.976Z,14.90
2018-07-17T02:49:45.561Z,14.90
2018-07-17T02:52:14.169Z,14.90
2018-07-17T02:54:42.754Z,14.90
2018-07-17T02:57:11.421Z,14.80
2018-07-17T02:59:40.033Z,14.80
2018-07-17T03:02:08.667Z,14.80
2018-07-17T03:04:37.312Z,14.90
2018-07-17T03:07:05.959Z,14.90
2018-07-17T03:09:34.589Z,14.90
2018-07-17T03:12:03.234Z,14.80
2018-07-17T03:14:31.842Z,14.80
2018-07-17T03:17:00.511Z,14.80
2018-07-17T03:19:29.113Z,14.70
2018-07-17T03:21:57.730Z,14.70
2018-07-17T03:24:26.468Z,14.80
2018-07-17T03:26:55.019Z,14.60
2018-07-17T03:29:23.637Z,14.60
2018-07-17T03:31:52.283Z,14.50
2018-07-17T03:34:20.889Z,14.50
2018-07-17T03:36:49.542Z,14.40
2018-07-17T03:39:18.152Z,14.50
2018-07-17T03:41:46.798Z,14.50
2018-07-17T03:44:15.409Z,14.50
2018-07-17T03:46:44.029Z,14.40
2018-07-17T03:49:12.649Z,14.40
2018-07-17T03:51:41.293Z,14.40
2018-07-17T03:54:09.910Z,14.30
2018-07-17T03:56:38.553Z,14.30
2018-07-17T03:59:07.248Z,14.40
2018-07-17T04:01:35.885Z,14.40
2018-07-17T04:04:04.516Z,14.40
2018-07-17T04:06:33.171Z,14.40
2018-07-17T04:09:01.786Z,14.40
2018-07-17T04:11:30.434Z,14.40
2018-07-17T04:13:59.021Z,14.50
2018-07-17T04:16:27.669Z,14.50
2018-07-17T04:18:56.393Z,14.50
2018-07-17T04:21:25.141Z,14.60
2018-07-17T04:23:53.754Z,14.60
2018-07-17T04:26:22.367Z,14.60
2018-07-17T04:28:50.993Z,14.70
2018-07-17T04:31:19.605Z,14.80
2018-07-17T04:33:48.250Z,14.90
2018-07-17T04:36:16.846Z,14.80
2018-07-17T04:38:45.441Z,14.80
2018-07-17T04:41:14.125Z,14.80
2018-07-17T04:43:42.873Z,14.80
2018-07-17T04:46:12.054Z,14.80
2018-07-17T04:48:40.673Z,14.80
2018-07-17T04:51:09.380Z,14.90
2018-07-17T04:53:37.989Z,15.00
2018-07-17T04:56:06.666Z,15.10
2018-07-17T04:58:35.317Z,15.30
2018-07-17T05:01:04.097Z,15.40
2018-07-17T05:03:32.813Z,15.40
2018-07-17T05:06:01.362Z,15.40
2018-07-17T05:08:30.037Z,15.50
2018-07-17T05:10:58.711Z,15.70
2018-07-17T05:13:27.417Z,15.90
2018-07-17T05:15:56.045Z,16.10
2018-07-17T05:18:24.668Z,16.00
2018-07-17T05:20:53.238Z,16.10
2018-07-17T05:23:21.923Z,16.20
2018-07-17T05:25:50.832Z,16.20
2018-07-17T05:28:19.726Z,16.20
2018-07-17T05:30:48.517Z,16.30
2018-07-17T05:33:17.146Z,16.40
2018-07-17T05:35:45.800Z,16.40
2018-07-17T05:38:14.412Z,16.50
2018-07-17T05:40:43.091Z,16.50
2018-07-17T05:43:11.739Z,16.60
2018-07-17T05:45:40.388Z,16.70
2018-07-17T05:50:37.325Z,17.00
2018-07-17T05:53:06.018Z,17.10
2018-07-17T05:55:34.638Z,17.20
2018-07-17T05:58:03.282Z,17.20
2018-07-17T06:00:31.926Z,17.10
2018-07-17T06:03:00.625Z,17.30
2018-07-17T06:05:29.244Z,17.80
2018-07-17T06:07:57.986Z,18.90
2018-07-17T06:10:26.705Z,20.60
2018-07-17T06:12:55.261Z,21.70
2018-07-17T06:15:23.858Z,22.30
2018-07-17T06:17:52.493Z,22.50
2018-07-17T06:20:21.142Z,22.90
2018-07-17T06:22:49.803Z,22.30
2018-07-17T06:25:18.407Z,22.90
2018-07-17T06:27:47.052Z,23.00
2018-07-17T06:30:15.660Z,23.30
2018-07-17T06:54:04.551Z,19.30
2018-07-17T06:56:33.152Z,19.60
2018-07-17T06:59:01.851Z,19.90
2018-07-17T07:01:30.438Z,20.00
2018-07-17T07:03:59.069Z,20.00
2018-07-17T07:06:27.725Z,20.00
2018-07-17T07:08:56.360Z,20.20
2018-07-17T07:11:25.077Z,20.20
2018-07-17T07:13:53.731Z,20.50
2018-07-17T07:16:22.380Z,20.80
2018-07-17T07:18:51.233Z,21.00
2018-07-17T07:21:19.981Z,21.40
2018-07-17T07:26:16.876Z,21.60
2018-07-17T07:28:45.524Z,21.50
2018-07-17T07:31:14.118Z,21.60
2018-07-17T07:33:42.750Z,21.60
2018-07-17T07:36:11.393Z,22.00
2018-07-17T07:38:40.091Z,21.90
2018-07-17T07:41:08.720Z,22.10
2018-07-17T07:43:37.340Z,22.20
2018-07-17T07:46:06.158Z,22.60
2018-07-17T07:48:34.771Z,22.70
2018-07-17T07:51:03.399Z,22.70
2018-07-17T07:53:32.089Z,22.90
2018-07-17T07:56:00.694Z,23.10
2018-07-17T07:58:29.379Z,23.20
2018-07-17T08:00:57.976Z,23.10
2018-07-17T08:03:26.725Z,23.20
2018-07-17T08:05:55.320Z,23.50
2018-07-17T08:08:23.959Z,23.40
2018-07-17T08:10:52.589Z,23.30
2018-07-17T08:13:21.221Z,23.50
2018-07-17T08:15:49.864Z,23.60
2018-07-17T08:18:18.567Z,23.80
2018-07-17T08:20:47.165Z,23.90
2018-07-17T08:23:15.820Z,23.80
2018-07-17T08:25:44.419Z,24.20
2018-07-17T08:28:13.057Z,24.50
2018-07-17T08:30:41.674Z,24.20
2018-07-17T08:33:10.370Z,24.50
2018-07-17T08:35:39.015Z,24.50
2018-07-17T08:38:07.788Z,24.70
2018-07-17T08:40:36.414Z,24.80
2018-07-17T08:43:05.061Z,24.70
2018-07-17T08:45:33.686Z,24.50
2018-07-17T08:48:02.359Z,25.00
2018-07-17T08:50:30.985Z,25.50
2018-07-17T08:52:59.625Z,25.70
2018-07-17T08:55:28.278Z,26.00
2018-07-17T08:57:56.979Z,25.50
2018-07-17T09:00:25.672Z,25.60
2018-07-17T09:02:54.354Z,25.80
2018-07-17T09:05:23.002Z,25.70
2018-07-17T09:07:51.643Z,26.30
2018-07-17T09:10:20.298Z,26.70
2018-07-17T09:12:48.991Z,26.60
2018-07-17T09:15:17.742Z,25.90
2018-07-17T09:17:46.443Z,25.70
2018-07-17T09:20:15.082Z,26.60
2018-07-17T09:22:43.667Z,27.00
2018-07-17T09:25:12.331Z,26.90
2018-07-17T09:27:41.025Z,27.20
2018-07-17T09:30:09.687Z,27.30
2018-07-17T09:32:38.264Z,27.20
2018-07-17T09:35:06.872Z,27.50
2018-07-17T09:37:35.512Z,27.40
2018-07-17T09:40:04.254Z,27.70
2018-07-17T09:42:32.902Z,27.60
2018-07-17T09:45:01.592Z,27.60
2018-07-17T09:47:30.210Z,27.60
2018-07-17T09:49:58.865Z,28.00
2018-07-17T09:52:27.496Z,28.10
2018-07-17T09:54:56.157Z,28.20
2018-07-17T09:57:24.785Z,28.30
2018-07-17T09:59:53.459Z,28.00
2018-07-17T10:02:27.461Z,28.00
2018-07-17T10:04:56.948Z,28.00
2018-07-17T10:07:25.797Z,27.80
2018-07-17T10:09:54.485Z,28.10
2018-07-17T10:12:23.866Z,27.90
2018-07-17T10:14:52.554Z,28.20
2018-07-17T10:17:21.212Z,28.60
2018-07-17T10:19:49.886Z,28.40
2018-07-17T10:22:18.461Z,28.30
2018-07-17T10:24:47.071Z,28.50
2018-07-17T10:27:15.689Z,28.70
2018-07-17T10:29:44.338Z,27.90
2018-07-17T10:32:13.019Z,27.80
2018-07-17T10:34:41.622Z,27.60
2018-07-17T10:37:10.241Z,27.90
2018-07-17T10:39:38.952Z,28.50
2018-07-17T10:42:07.569Z,28.20
2018-07-17T10:44:36.230Z,28.40
2018-07-17T10:47:04.871Z,28.40
2018-07-17T10:49:33.514Z,28.60
2018-07-17T10:52:02.137Z,28.30
2018-07-17T10:54:30.805Z,28.50
2018-07-17T10:56:59.413Z,28.60
2018-07-17T10:59:28.069Z,28.70
2018-07-17T11:01:56.657Z,28.80
2018-07-17T11:04:25.313Z,29.00
2018-07-17T11:06:53.922Z,28.80
2018-07-17T11:09:23.154Z,28.80
2018-07-17T11:11:51.724Z,29.00
2018-07-17T11:14:20.682Z,29.20
2018-07-17T11:16:49.298Z,29.70
2018-07-17T11:19:17.958Z,29.80
2018-07-17T11:21:46.525Z,29.40
2018-07-17T11:24:15.153Z,29.30
2018-07-17T11:26:43.754Z,29.30
2018-07-17T11:29:12.494Z,29.30
2018-07-17T11:31:41.061Z,29.20
2018-07-17T11:34:09.665Z,29.10
2018-07-17T11:36:38.300Z,28.80
2018-07-17T11:39:07.842Z,28.60
2018-07-17T11:41:36.479Z,28.80
2018-07-17T11:44:05.097Z,29.30
2018-07-17T11:46:33.727Z,29.50
2018-07-17T11:49:02.330Z,29.40
2018-07-17T11:51:30.976Z,29.60
2018-07-17T11:53:59.688Z,30.10
2018-07-17T11:56:28.330Z,29.90
2018-07-17T11:58:56.940Z,29.60
2018-07-17T12:01:25.487Z,29.00
2018-07-17T12:03:54.081Z,28.80
2018-07-17T12:06:22.769Z,28.90
2018-07-17T12:08:51.361Z,28.70
2018-07-17T12:11:19.998Z,28.50
2018-07-17T12:13:48.622Z,27.80
2018-07-17T12:16:17.300Z,27.20
2018-07-17T12:18:45.953Z,26.60
2018-07-17T12:21:14.594Z,26.20
2018-07-17T12:23:43.837Z,25.50
2018-07-17T12:26:12.491Z,25.30
2018-07-17T12:28:41.093Z,24.80
2018-07-17T12:31:09.699Z,24.80
2018-07-17T12:33:38.356Z,24.10
2018-07-17T12:36:07.821Z,23.80
2018-07-17T12:38:36.828Z,24.00
2018-07-17T12:41:05.470Z,24.10
2018-07-17T12:43:34.123Z,24.30
2018-07-17T12:46:02.769Z,24.40
2018-07-17T12:48:31.446Z,24.60
2018-07-17T12:51:00.055Z,25.10
2018-07-17T12:53:28.692Z,25.90
2018-07-17T12:55:57.319Z,26.20
2018-07-17T12:58:25.936Z,26.40
2018-07-17T13:00:54.562Z,27.00
2018-07-17T13:03:23.184Z,27.60
2018-07-17T13:05:51.836Z,28.30
2018-07-17T13:08:20.481Z,28.50
2018-07-17T13:10:49.108Z,28.60
2018-07-17T13:13:17.730Z,29.20
2018-07-17T13:15:46.414Z,29.50
2018-07-17T13:18:15.062Z,28.60
2018-07-17T13:20:43.915Z,28.20
2018-07-17T13:23:12.620Z,28.50
2018-07-17T13:25:41.291Z,28.90
2018-07-17T13:28:10.073Z,28.40
2018-07-17T13:30:38.753Z,28.60
2018-07-17T13:33:07.408Z,28.70
2018-07-17T13:35:36.142Z,29.10
2018-07-17T13:38:04.783Z,29.80
2018-07-17T13:40:33.430Z,30.10
2018-07-17T13:43:02.126Z,29.70
2018-07-17T13:45:30.999Z,29.80
2018-07-17T13:47:59.629Z,29.10
2018-07-17T13:50:28.379Z,28.40
2018-07-17T13:52:56.993Z,28.50
2018-07-17T13:55:25.727Z,28.80
2018-07-17T13:57:54.298Z,28.60
2018-07-17T14:00:22.939Z,28.60
2018-07-17T14:02:51.554Z,28.40
2018-07-17T14:05:20.244Z,28.40
2018-07-17T14:07:48.856Z,28.60
2018-07-17T14:10:17.545Z,28.80
2018-07-17T14:12:46.164Z,28.90
2018-07-17T14:15:14.857Z,28.40
2018-07-17T14:17:43.530Z,28.00
2018-07-17T14:20:12.206Z,28.20
2018-07-17T14:22:40.908Z,28.50
2018-07-17T14:25:09.535Z,28.00
2018-07-17T14:27:38.208Z,28.40
2018-07-17T14:30:06.837Z,28.20
2018-07-17T14:32:35.491Z,28.20
2018-07-17T14:35:04.596Z,28.10
2018-07-17T14:37:33.252Z,27.70
2018-07-17T14:40:01.891Z,28.80
2018-07-17T14:42:30.578Z,29.40
2018-07-17T14:44:59.176Z,29.20
2018-07-17T14:47:27.871Z,29.60
2018-07-17T14:49:56.513Z,30.10
2018-07-17T14:52:25.164Z,29.60
2018-07-17T14:54:53.785Z,29.50
2018-07-17T14:57:22.408Z,29.90
2018-07-17T14:59:51.025Z,29.70
2018-07-17T15:02:19.684Z,29.10
2018-07-17T15:04:48.288Z,28.80
2018-07-17T15:07:23.681Z,29.10
2018-07-17T15:09:52.332Z,29.80
2018-07-17T15:12:21.119Z,30.10
2018-07-17T15:14:49.781Z,29.90
2018-07-17T15:17:18.441Z,29.80
2018-07-17T15:19:47.069Z,29.60
2018-07-17T15:22:15.720Z,29.20
2018-07-17T15:24:44.370Z,29.10
2018-07-17T15:27:12.983Z,28.90
2018-07-17T15:29:41.579Z,29.10
2018-07-17T15:32:10.222Z,29.60
2018-07-17T15:34:38.826Z,28.90
2018-07-17T15:37:07.441Z,28.90
2018-07-17T15:39:36.049Z,28.40
2018-07-17T15:42:04.682Z,28.30
2018-07-17T15:44:33.294Z,28.20
2018-07-17T15:47:01.911Z,28.50
2018-07-17T15:49:30.553Z,29.00
2018-07-17T15:51:59.145Z,29.40
2018-07-17T15:54:27.717Z,29.10
2018-07-17T15:56:56.337Z,29.00
2018-07-17T15:59:24.975Z,29.20
2018-07-17T16:01:53.722Z,29.00
2018-07-17T16:04:22.289Z,29.50
2018-07-17T16:06:51.105Z,29.70
2018-07-17T16:09:19.722Z,29.70
2018-07-17T16:11:48.401Z,29.80
2018-07-17T16:14:17.361Z,29.80
2018-07-17T16:16:45.712Z,29.60
2018-07-17T16:19:14.341Z,28.90
2018-07-17T16:21:43.011Z,28.70
2018-07-17T16:24:11.734Z,28.30
2018-07-17T16:26:40.408Z,28.30
2018-07-17T16:29:09.030Z,28.30
2018-07-17T16:31:37.674Z,28.30
2018-07-17T16:34:06.346Z,27.90
2018-07-17T16:36:35.034Z,28.00
2018-07-17T16:39:03.805Z,27.40
2018-07-17T16:41:32.456Z,27.60
2018-07-17T16:44:01.122Z,27.80
2018-07-17T16:46:29.762Z,28.60
2018-07-17T16:48:58.386Z,28.70
2018-07-17T16:51:27.096Z,28.80
2018-07-17T16:53:56.270Z,28.40
2018-07-17T16:56:24.902Z,28.10
2018-07-17T16:58:53.501Z,27.90
2018-07-17T17:01:22.655Z,27.70
2018-07-17T17:03:51.384Z,27.50
2018-07-17T17:06:20.041Z,27.10
2018-07-17T17:08:48.733Z,27.10
2018-07-17T17:11:17.369Z,27.30
2018-07-17T17:13:46.039Z,27.60
2018-07-17T17:16:14.665Z,28.40
2018-07-17T17:18:43.281Z,30.00
2018-07-17T17:21:11.891Z,31.30
2018-07-17T17:23:40.506Z,31.70
2018-07-17T17:26:09.101Z,31.80
2018-07-17T17:28:37.778Z,31.20
2018-07-17T17:31:06.471Z,30.80
2018-07-17T17:33:35.112Z,30.70
2018-07-17T17:36:03.744Z,30.90
2018-07-17T17:38:32.374Z,30.80
2018-07-17T17:41:00.981Z,29.70
2018-07-17T17:43:29.635Z,29.40
2018-07-17T17:45:58.279Z,29.30
2018-07-17T17:48:26.881Z,28.80
2018-07-17T17:50:55.489Z,29.00
2018-07-17T17:53:24.132Z,28.90
2018-07-17T17:55:52.745Z,28.30
2018-07-17T17:58:21.377Z,28.40
2018-07-17T18:00:50.372Z,27.90
2018-07-17T18:03:18.994Z,27.80
2018-07-17T18:05:47.689Z,27.30
2018-07-17T18:08:16.382Z,27.10
2018-07-17T18:10:44.975Z,27.30
2018-07-17T18:13:13.689Z,27.50
2018-07-17T18:15:42.339Z,27.30
2018-07-17T18:18:11.124Z,27.30
2018-07-17T18:20:39.798Z,27.00
2018-07-17T18:23:08.444Z,26.60
2018-07-17T18:25:37.061Z,26.40
2018-07-17T18:28:05.784Z,26.10
2018-07-17T18:30:34.492Z,25.80
2018-07-17T18:33:03.167Z,25.70
2018-07-17T18:35:31.793Z,25.60
2018-07-17T18:38:00.426Z,25.50
2018-07-17T18:40:29.086Z,25.40
2018-07-17T18:42:57.713Z,25.40
2018-07-17T18:45:26.333Z,25.20
2018-07-17T18:47:55.007Z,25.10
2018-07-17T18:50:23.696Z,25.00
2018-07-17T18:52:52.396Z,24.90
2018-07-17T18:55:21.032Z,24.90
2018-07-17T18:57:49.678Z,24.70
2018-07-17T19:00:18.332Z,24.70
2018-07-17T19:02:46.978Z,24.60
2018-07-17T19:05:15.612Z,24.40
2018-07-17T19:07:44.249Z,24.40
2018-07-17T19:10:12.966Z,24.30
2018-07-17T19:12:41.585Z,24.10
2018-07-17T19:15:10.166Z,23.90
2018-07-17T19:17:38.866Z,23.80
2018-07-17T19:20:07.479Z,23.70
2018-07-17T19:22:36.130Z,23.60
2018-07-17T19:25:04.803Z,23.50
2018-07-17T19:27:33.478Z,23.50
2018-07-17T19:30:02.127Z,23.30
2018-07-17T19:32:30.742Z,23.20
2018-07-17T19:34:59.413Z,23.20
2018-07-17T19:37:28.049Z,23.10
2018-07-17T19:39:56.706Z,23.10
2018-07-17T19:42:25.313Z,23.10
2018-07-17T19:44:53.975Z,23.00
2018-07-17T19:47:22.679Z,22.90
2018-07-17T19:49:51.295Z,22.90
2018-07-17T19:52:19.936Z,22.80
2018-07-17T19:54:48.630Z,22.70
2018-07-17T19:57:17.290Z,22.60
2018-07-17T19:59:46.068Z,22.60
2018-07-17T20:02:14.734Z,22.50
2018-07-17T20:04:43.381Z,22.40
2018-07-17T20:07:11.974Z,22.40
2018-07-17T20:09:40.592Z,22.30
2018-07-17T20:12:09.278Z,22.20
2018-07-17T20:14:37.962Z,22.20
2018-07-17T20:17:06.587Z,22.10
2018-07-17T20:19:35.245Z,22.00
2018-07-17T20:22:10.349Z,22.00
2018-07-17T20:24:38.960Z,21.90
2018-07-17T20:27:07.594Z,21.90
2018-07-17T20:29:36.233Z,21.80
2018-07-17T20:32:04.885Z,21.60
2018-07-17T20:34:33.538Z,21.50
2018-07-17T20:37:02.183Z,21.50
2018-07-17T20:39:30.969Z,21.60
2018-07-17T20:41:59.585Z,21.50
2018-07-17T20:44:28.229Z,21.60
2018-07-17T20:46:56.978Z,21.60
2018-07-17T20:49:25.614Z,21.50
2018-07-17T20:51:54.252Z,21.40
2018-07-17T20:54:22.896Z,21.40
2018-07-17T20:56:53.301Z,21.40
2018-07-17T20:59:21.978Z,21.40
2018-07-17T21:01:50.609Z,21.40
2018-07-17T21:04:19.246Z,21.40
2018-07-17T21:06:47.869Z,21.40
2018-07-17T21:09:16.481Z,21.40
2018-07-17T21:11:45.087Z,21.40
2018-07-17T21:14:13.900Z,21.40
2018-07-17T21:16:42.546Z,21.40
2018-07-17T21:19:11.160Z,21.40
2018-07-17T21:21:39.792Z,21.40
2018-07-17T21:24:08.428Z,21.50
2018-07-17T21:26:37.071Z,21.40
2018-07-17T21:29:06.038Z,21.40
2018-07-17T21:31:34.654Z,21.30
2018-07-17T21:34:03.312Z,21.30
2018-07-17T21:36:31.949Z,21.30
2018-07-17T21:39:00.602Z,21.20
2018-07-17T21:41:29.234Z,21.20
2018-07-17T21:43:57.878Z,21.10
2018-07-17T21:46:26.926Z,21.10
2018-07-17T21:48:55.601Z,21.00
2018-07-17T21:51:24.244Z,20.90
2018-07-17T21:53:52.871Z,20.90
2018-07-17T21:56:21.614Z,20.80
2018-07-17T21:58:50.328Z,20.80
2018-07-17T22:01:18.933Z,20.80
2018-07-17T22:03:47.629Z,20.90
2018-07-17T22:06:16.276Z,20.80
2018-07-17T22:08:44.911Z,20.80
2018-07-17T22:11:13.623Z,20.70
2018-07-17T22:13:42.153Z,20.70
2018-07-17T22:16:10.825Z,20.70
2018-07-17T22:18:39.468Z,20.60
2018-07-17T22:21:08.127Z,20.50
2018-07-17T22:23:36.732Z,20.50
2018-07-17T22:26:05.389Z,20.40
2018-07-17T22:28:33.993Z,20.40
2018-07-17T22:31:02.738Z,20.30
2018-07-17T22:33:31.363Z,20.20
2018-07-17T22:36:00.008Z,20.30
2018-07-17T22:38:28.641Z,20.10
2018-07-17T22:40:57.297Z,20.00
2018-07-17T22:43:25.931Z,19.90
2018-07-17T22:45:54.592Z,19.90
2018-07-17T22:48:23.203Z,19.80
2018-07-17T22:50:52.050Z,19.70
2018-07-17T22:53:21.202Z,19.60
2018-07-17T22:55:49.842Z,19.60
2018-07-17T22:58:18.461Z,19.50
2018-07-17T23:00:47.104Z,19.40
2018-07-17T23:03:15.731Z,19.40
2018-07-17T23:05:44.376Z,19.40
2018-07-17T23:08:12.979Z,19.40
2018-07-17T23:10:41.624Z,19.40
2018-07-17T23:13:10.298Z,19.40
2018-07-17T23:15:38.945Z,19.50
2018-07-17T23:18:07.604Z,19.50
2018-07-17T23:20:36.258Z,19.40
2018-07-17T23:23:04.890Z,19.30
2018-07-17T23:25:33.950Z,19.30
2018-07-17T23:28:02.571Z,19.30
2018-07-17T23:30:31.295Z,19.30
2018-07-17T23:32:59.941Z,19.30
2018-07-17T23:35:28.584Z,19.20
2018-07-17T23:37:57.198Z,19.10
2018-07-17T23:40:25.817Z,19.20
2018-07-17T23:42:54.446Z,19.20
2018-07-17T23:45:23.072Z,19.30
2018-07-17T23:47:51.711Z,19.20
2018-07-17T23:50:20.336Z,19.20
2018-07-17T23:52:48.955Z,19.10
2018-07-17T23:55:17.609Z,19.10
2018-07-17T23:57:46.192Z,19.10
